createdAt,value
2023-03-12T00:03:15.026Z,2.10
2023-03-12T00:08:21.909Z,1.90
2023-03-12T00:13:28.727Z,1.60
2023-03-12T00:18:35.826Z,1.70
2023-03-12T00:23:42.875Z,1.50
2023-03-12T00:28:51.874Z,1.50
2023-03-12T00:34:00.272Z,1.50
2023-03-12T00:39:07.849Z,1.80
2023-03-12T00:44:15.219Z,1.40
2023-03-12T00:49:22.286Z,1.30
2023-03-12T00:54:29.358Z,1.20
2023-03-12T00:59:36.136Z,0.90
2023-03-12T01:04:43.094Z,1.00
2023-03-12T01:09:50.228Z,0.80
2023-03-12T01:14:57.291Z,0.90
2023-03-12T01:20:05.586Z,1.00
2023-03-12T01:25:13.393Z,0.90
2023-03-12T01:30:20.467Z,0.80
2023-03-12T01:35:27.745Z,0.80
2023-03-12T01:40:37.455Z,0.70
2023-03-12T01:46:13.736Z,0.80
2023-03-12T01:51:22.717Z,0.90
2023-03-12T01:56:33.799Z,0.70
2023-03-12T02:01:42.416Z,0.50
2023-03-12T02:07:11.189Z,0.50
2023-03-12T02:12:20.087Z,0.30
2023-03-12T02:17:27.662Z,0.20
2023-03-12T02:22:35.693Z,0.10
2023-03-12T02:27:43.228Z,0.20
2023-03-12T02:32:52.345Z,0.40
2023-03-12T02:37:59.603Z,0.20
2023-03-12T02:43:09.454Z,0.30
2023-03-12T02:48:16.148Z,-0.10
2023-03-12T02:53:22.858Z,-0.10
2023-03-12T02:58:29.595Z,-0.20
2023-03-12T03:03:36.346Z,-0.20
2023-03-12T03:08:43.473Z,-0.20
2023-03-12T03:13:50.407Z,-0.30
2023-03-12T03:18:58.495Z,-0.10
2023-03-12T03:24:05.662Z,-0.10
2023-03-12T03:29:12.395Z,0.10
2023-03-12T03:34:19.101Z,0.10
2023-03-12T03:39:25.813Z,0.00
2023-03-12T03:44:32.525Z,0.10
2023-03-12T03:49:39.176Z,0.00
2023-03-12T03:54:45.791Z,-0.20
2023-03-12T03:59:52.490Z,-0.40
2023-03-12T04:05:02.446Z,-0.50
2023-03-12T04:10:11.810Z,-0.50
2023-03-12T04:15:19.128Z,-0.50
2023-03-12T04:20:27.506Z,-0.50
2023-03-12T04:25:35.743Z,-0.60
2023-03-12T04:30:42.411Z,-0.50
2023-03-12T04:35:56.430Z,-0.40
2023-03-12T04:41:13.433Z,-0.60
2023-03-12T04:46:25.215Z,-0.70
2023-03-12T04:51:36.554Z,-0.60
2023-03-12T04:56:44.801Z,-0.70
2023-03-12T05:01:52.087Z,-0.70
2023-03-12T05:07:00.063Z,-0.50
2023-03-12T05:12:10.462Z,-0.60
2023-03-12T05:17:17.191Z,-0.60
2023-03-12T05:22:25.512Z,-0.60
2023-03-12T05:27:35.291Z,-0.70
2023-03-12T05:32:43.107Z,-0.70
2023-03-12T05:37:54.407Z,-0.80
2023-03-12T05:43:01.148Z,-0.60
2023-03-12T05:48:09.898Z,-0.60
2023-03-12T05:53:19.594Z,-0.60
2023-03-12T05:58:28.541Z,-0.60
2023-03-12T06:03:37.021Z,-0.60
2023-03-12T06:08:45.527Z,-0.60
2023-03-12T06:13:52.948Z,-0.50
2023-03-12T06:19:04.999Z,-0.60
2023-03-12T06:24:15.132Z,-0.70
2023-03-12T06:29:22.233Z,-0.50
2023-03-12T06:34:29.397Z,-0.30
2023-03-12T06:39:43.476Z,-0.30
2023-03-12T06:44:54.975Z,-0.50
2023-03-12T06:50:03.191Z,-0.30
2023-03-12T06:55:10.738Z,-0.40
2023-03-12T07:00:17.876Z,-0.20
2023-03-12T07:05:30.086Z,-0.20
2023-03-12T07:10:38.428Z,-0.30
2023-03-12T07:15:47.237Z,-0.40
2023-03-12T07:20:55.036Z,-0.40
2023-03-12T07:26:08.447Z,-0.40
2023-03-12T07:31:16.783Z,-0.30
2023-03-12T07:36:23.884Z,0.00
2023-03-12T07:41:35.059Z,0.10
2023-03-12T07:46:43.815Z,0.10
2023-03-12T07:51:55.021Z,0.30
2023-03-12T07:57:03.749Z,0.30
2023-03-12T08:02:13.092Z,0.60
2023-03-12T08:07:20.769Z,0.80
2023-03-12T08:12:29.569Z,1.20
2023-03-12T08:17:36.488Z,1.50
2023-03-12T08:22:44.045Z,1.50
2023-03-12T08:27:54.547Z,1.60
2023-03-12T08:33:01.227Z,1.80
2023-03-12T08:38:08.068Z,1.80
2023-03-12T08:43:16.231Z,2.00
2023-03-12T08:48:22.960Z,2.30
2023-03-12T08:53:32.178Z,2.10
2023-03-12T08:58:40.498Z,2.30
2023-03-12T09:03:51.731Z,2.60
2023-03-12T09:09:01.733Z,3.00
2023-03-12T09:19:21.659Z,3.20
2023-03-12T09:24:32.189Z,3.20
2023-03-12T09:29:49.681Z,3.50
2023-03-12T09:34:47.647Z,3.50
2023-03-12T09:39:59.293Z,3.50
2023-03-12T09:45:10.340Z,3.50
2023-03-12T09:50:34.692Z,3.40
2023-03-12T09:55:49.051Z,3.40
2023-03-12T10:01:11.052Z,3.60
2023-03-12T10:06:30.722Z,3.90
2023-03-12T10:12:08.787Z,4.10
2023-03-12T10:17:36.771Z,4.30
2023-03-12T10:23:15.478Z,4.30
2023-03-12T10:28:42.754Z,4.40
2023-03-12T10:33:59.386Z,4.40
2023-03-12T10:39:11.345Z,4.80
2023-03-12T10:44:25.211Z,4.60
2023-03-12T10:49:35.652Z,4.80
2023-03-12T10:54:45.083Z,4.60
2023-03-12T10:59:54.223Z,4.50
2023-03-12T11:05:03.075Z,4.30
2023-03-12T11:10:14.665Z,4.30
2023-03-12T11:15:29.338Z,4.70
2023-03-12T11:20:39.078Z,4.20
2023-03-12T11:25:55.833Z,4.70
2023-03-12T11:31:10.204Z,5.10
2023-03-12T11:36:31.614Z,5.40
2023-03-12T11:42:11.269Z,5.50
2023-03-12T11:47:32.730Z,5.50
2023-03-12T11:52:44.331Z,5.90
2023-03-12T11:58:23.564Z,5.90
2023-03-12T12:04:02.956Z,6.10
2023-03-12T12:09:37.379Z,5.70
2023-03-12T12:14:58.015Z,6.10
2023-03-12T12:20:29.544Z,6.40
2023-03-12T12:26:02.268Z,6.20
2023-03-12T12:31:36.414Z,6.40
2023-03-12T12:36:39.942Z,6.50
2023-03-12T12:41:51.771Z,6.30
2023-03-12T12:47:04.684Z,6.30
2023-03-12T12:52:20.562Z,6.30
2023-03-12T12:57:54.037Z,6.70
2023-03-12T13:03:03.665Z,6.40
2023-03-12T13:08:14.253Z,6.40
2023-03-12T13:13:27.715Z,6.50
2023-03-12T13:18:37.830Z,6.40
2023-03-12T13:24:17.925Z,6.60
2023-03-12T13:29:33.084Z,6.50
2023-03-12T13:34:49.673Z,7.10
2023-03-12T13:40:04.908Z,7.00
2023-03-12T13:45:28.468Z,7.00
2023-03-12T13:50:47.677Z,7.20
2023-03-12T13:56:04.483Z,7.30
2023-03-12T14:01:18.655Z,7.20
2023-03-12T14:06:37.595Z,7.00
2023-03-12T14:12:17.690Z,7.10
2023-03-12T14:17:30.573Z,6.90
2023-03-12T14:22:40.779Z,6.80
2023-03-12T14:27:54.324Z,6.90
2023-03-12T14:33:05.849Z,6.70
2023-03-12T14:38:24.721Z,6.80
2023-03-12T14:43:37.139Z,6.80
2023-03-12T14:48:46.762Z,6.70
2023-03-12T14:53:59.226Z,6.90
2023-03-12T14:59:28.515Z,7.00
2023-03-12T15:04:39.376Z,7.10
2023-03-12T15:09:56.148Z,7.00
2023-03-12T15:20:37.794Z,7.10
2023-03-12T15:25:46.880Z,7.10
2023-03-12T15:31:18.063Z,7.10
2023-03-12T15:36:29.552Z,6.90
2023-03-12T15:41:47.623Z,6.80
2023-03-12T15:47:08.302Z,6.60
2023-03-12T15:52:28.363Z,6.40
2023-03-12T15:57:50.869Z,6.40
2023-03-12T16:03:07.314Z,6.20
2023-03-12T16:08:19.315Z,6.00
2023-03-12T16:13:35.668Z,6.10
2023-03-12T16:18:45.928Z,6.10
2023-03-12T16:23:54.656Z,6.20
2023-03-12T16:29:01.814Z,6.20
2023-03-12T16:34:33.452Z,6.10
2023-03-12T16:39:19.109Z,5.90
2023-03-12T16:44:34.397Z,5.70
2023-03-12T16:49:39.173Z,5.70
2023-03-12T16:54:48.363Z,5.50
2023-03-12T16:59:56.687Z,5.30
2023-03-12T17:05:04.912Z,5.00
2023-03-12T17:10:17.710Z,5.00
2023-03-12T17:15:31.219Z,4.80
2023-03-12T17:20:40.328Z,4.70
2023-03-12T17:25:50.089Z,4.70
2023-03-12T17:31:01.388Z,4.70
2023-03-12T17:36:17.015Z,4.30
2023-03-12T17:41:27.561Z,4.10
2023-03-12T17:46:35.415Z,4.10
2023-03-12T17:51:44.663Z,4.30
2023-03-12T17:56:56.002Z,4.10
2023-03-12T18:02:04.460Z,3.90
2023-03-12T18:07:11.457Z,3.80
2023-03-12T18:12:18.605Z,3.70
2023-03-12T18:22:57.477Z,3.60
2023-03-12T18:28:04.374Z,3.60
2023-03-12T18:33:11.110Z,3.60
2023-03-12T18:38:17.752Z,3.70
2023-03-12T18:43:24.855Z,3.70
2023-03-12T18:48:31.965Z,3.90
2023-03-12T18:53:38.721Z,3.80
2023-03-12T18:58:45.479Z,3.40
2023-03-12T19:03:53.177Z,3.40
2023-03-12T19:09:00.093Z,3.20
2023-03-12T19:14:07.022Z,3.30
2023-03-12T19:19:13.945Z,3.20
2023-03-12T19:24:21.032Z,3.30
2023-03-12T19:29:28.046Z,3.30
2023-03-12T19:34:34.753Z,3.10
2023-03-12T19:39:41.811Z,2.90
2023-03-12T19:44:49.666Z,3.00
2023-03-12T19:49:56.845Z,3.00
2023-03-12T19:55:05.363Z,2.90
2023-03-12T20:00:13.605Z,2.90
2023-03-12T20:05:20.872Z,2.90
2023-03-12T20:10:29.194Z,2.90
2023-03-12T20:15:37.515Z,3.00
2023-03-12T20:20:44.964Z,2.70
2023-03-12T20:25:53.033Z,2.80
2023-03-12T20:30:59.878Z,2.80
2023-03-12T20:36:12.980Z,2.80
2023-03-12T20:41:20.022Z,2.80
2023-03-12T20:46:27.142Z,2.70
2023-03-12T20:51:34.025Z,2.60
2023-03-12T20:56:42.635Z,2.70
2023-03-12T21:01:49.421Z,2.90
2023-03-12T21:06:56.936Z,2.70
2023-03-12T21:12:03.759Z,2.70
2023-03-12T21:17:12.604Z,2.60
2023-03-12T21:22:19.851Z,2.50
2023-03-12T21:27:26.940Z,2.70
2023-03-12T21:32:33.916Z,2.90
2023-03-12T21:37:41.097Z,2.70
2023-03-12T21:42:48.018Z,2.80
2023-03-12T21:47:54.725Z,2.80
2023-03-12T21:53:03.526Z,2.50
2023-03-12T21:58:10.516Z,2.40
2023-03-12T22:03:17.356Z,2.50
2023-03-12T22:08:24.506Z,2.50
2023-03-12T22:13:33.185Z,2.60
2023-03-12T22:18:46.772Z,2.60
2023-03-12T22:23:57.062Z,2.70
2023-03-12T22:29:04.144Z,2.50
2023-03-12T22:34:10.878Z,2.60
2023-03-12T22:39:19.043Z,2.40
2023-03-12T22:44:25.828Z,2.50
2023-03-12T22:49:32.717Z,2.50
2023-03-12T22:54:39.588Z,2.50
2023-03-12T22:59:48.649Z,2.50
2023-03-12T23:04:55.741Z,2.50
2023-03-12T23:10:03.279Z,2.60
2023-03-12T23:15:11.747Z,2.60
2023-03-12T23:20:18.544Z,2.70
2023-03-12T23:25:25.935Z,2.80
2023-03-12T23:30:34.471Z,2.90
2023-03-12T23:35:41.735Z,2.70
2023-03-12T23:40:48.728Z,2.70
2023-03-12T23:46:04.094Z,2.70
2023-03-12T23:51:15.027Z,2.80
2023-03-12T23:56:26.662Z,2.80
